sensor_id;sensor_type;location;lat;lon;timestamp;P1;durP1;ratioP1;P2;durP2;ratioP2
9906;SDS011;4992;51.628;6.664;2023-12-22T00:00:29;8.97;;;1.30;;
9906;SDS011;4992;51.628;6.664;2023-12-22T00:02:54;6.17;;;1.30;;
9906;SDS011;4992;51.628;6.664;2023-12-22T00:05:20;5.37;;;1.37;;
9906;SDS011;4992;51.628;6.664;2023-12-22T00:07:46;4.43;;;1.20;;
9906;SDS011;4992;51.628;6.664;2023-12-22T00:10:11;5.27;;;1.50;;
9906;SDS011;4992;51.628;6.664;2023-12-22T00:12:37;7.20;;;2.03;;
9906;SDS011;4992;51.628;6.664;2023-12-22T00:15:03;5.60;;;1.13;;
9906;SDS011;4992;51.628;6.664;2023-12-22T00:17:29;5.47;;;1.63;;
9906;SDS011;4992;51.628;6.664;2023-12-22T00:19:55;7.10;;;1.30;;
9906;SDS011;4992;51.628;6.664;2023-12-22T00:22:23;7.73;;;1.90;;
9906;SDS011;4992;51.628;6.664;2023-12-22T00:24:50;6.53;;;1.50;;
9906;SDS011;4992;51.628;6.664;2023-12-22T00:27:16;7.73;;;1.67;;
9906;SDS011;4992;51.628;6.664;2023-12-22T00:29:41;12.50;;;1.87;;
9906;SDS011;4992;51.628;6.664;2023-12-22T00:32:07;7.00;;;2.43;;
9906;SDS011;4992;51.628;6.664;2023-12-22T00:34:34;5.70;;;1.30;;
9906;SDS011;4992;51.628;6.664;2023-12-22T00:37:00;6.87;;;1.43;;
9906;SDS011;4992;51.628;6.664;2023-12-22T00:39:26;10.03;;;1.77;;
9906;SDS011;4992;51.628;6.664;2023-12-22T00:41:52;9.33;;;1.63;;
9906;SDS011;4992;51.628;6.664;2023-12-22T00:44:17;8.83;;;1.40;;
9906;SDS011;4992;51.628;6.664;2023-12-22T00:46:43;10.37;;;2.00;;
9906;SDS011;4992;51.628;6.664;2023-12-22T00:49:08;9.27;;;1.90;;
9906;SDS011;4992;51.628;6.664;2023-12-22T00:51:34;10.10;;;1.50;;
9906;SDS011;4992;51.628;6.664;2023-12-22T00:53:59;10.40;;;2.40;;
9906;SDS011;4992;51.628;6.664;2023-12-22T00:56:25;17.77;;;2.07;;
9906;SDS011;4992;51.628;6.664;2023-12-22T00:58:50;8.70;;;1.80;;
9906;SDS011;4992;51.628;6.664;2023-12-22T01:01:16;11.10;;;1.90;;
9906;SDS011;4992;51.628;6.664;2023-12-22T01:03:42;9.83;;;1.70;;
9906;SDS011;4992;51.628;6.664;2023-12-22T01:06:07;9.10;;;1.80;;
9906;SDS011;4992;51.628;6.664;2023-12-22T01:08:33;10.37;;;1.50;;
9906;SDS011;4992;51.628;6.664;2023-12-22T01:10:58;7.10;;;1.30;;
9906;SDS011;4992;51.628;6.664;2023-12-22T01:13:24;4.33;;;1.40;;
9906;SDS011;4992;51.628;6.664;2023-12-22T01:15:49;4.83;;;0.77;;
9906;SDS011;4992;51.628;6.664;2023-12-22T01:18:15;3.37;;;0.73;;
9906;SDS011;4992;51.628;6.664;2023-12-22T01:20:40;3.40;;;0.50;;
9906;SDS011;4992;51.628;6.664;2023-12-22T01:23:06;2.43;;;0.50;;
9906;SDS011;4992;51.628;6.664;2023-12-22T01:25:31;1.70;;;0.80;;
9906;SDS011;4992;51.628;6.664;2023-12-22T01:27:57;4.10;;;0.83;;
9906;SDS011;4992;51.628;6.664;2023-12-22T01:30:22;5.47;;;0.60;;
9906;SDS011;4992;51.628;6.664;2023-12-22T01:32:48;3.97;;;0.60;;
9906;SDS011;4992;51.628;6.664;2023-12-22T01:35:13;2.77;;;0.93;;
9906;SDS011;4992;51.628;6.664;2023-12-22T01:37:39;4.07;;;0.70;;
9906;SDS011;4992;51.628;6.664;2023-12-22T01:40:05;3.27;;;1.10;;
9906;SDS011;4992;51.628;6.664;2023-12-22T01:42:31;2.17;;;0.60;;
9906;SDS011;4992;51.628;6.664;2023-12-22T01:44:56;2.33;;;0.67;;
9906;SDS011;4992;51.628;6.664;2023-12-22T01:47:22;4.67;;;1.10;;
9906;SDS011;4992;51.628;6.664;2023-12-22T01:49:47;2.77;;;0.70;;
9906;SDS011;4992;51.628;6.664;2023-12-22T01:52:13;4.40;;;0.90;;
9906;SDS011;4992;51.628;6.664;2023-12-22T01:54:40;5.87;;;1.10;;
9906;SDS011;4992;51.628;6.664;2023-12-22T01:57:06;11.50;;;1.30;;
9906;SDS011;4992;51.628;6.664;2023-12-22T01:59:32;6.10;;;0.90;;
9906;SDS011;4992;51.628;6.664;2023-12-22T02:02:00;7.57;;;1.23;;
9906;SDS011;4992;51.628;6.664;2023-12-22T02:04:27;6.47;;;0.97;;
9906;SDS011;4992;51.628;6.664;2023-12-22T02:06:55;5.93;;;1.27;;
9906;SDS011;4992;51.628;6.664;2023-12-22T02:09:26;4.70;;;1.00;;
9906;SDS011;4992;51.628;6.664;2023-12-22T02:11:52;4.37;;;0.90;;
9906;SDS011;4992;51.628;6.664;2023-12-22T02:14:17;6.30;;;1.17;;
9906;SDS011;4992;51.628;6.664;2023-12-22T02:16:54;5.33;;;1.00;;
9906;SDS011;4992;51.628;6.664;2023-12-22T02:22:07;3.67;;;0.80;;
9906;SDS011;4992;51.628;6.664;2023-12-22T02:24:33;9.37;;;1.33;;
9906;SDS011;4992;51.628;6.664;2023-12-22T02:29:30;8.77;;;1.60;;
9906;SDS011;4992;51.628;6.664;2023-12-22T02:31:59;7.53;;;1.20;;
9906;SDS011;4992;51.628;6.664;2023-12-22T02:34:30;5.67;;;1.17;;
9906;SDS011;4992;51.628;6.664;2023-12-22T02:36:59;8.37;;;0.87;;
9906;SDS011;4992;51.628;6.664;2023-12-22T02:39:25;5.57;;;1.60;;
9906;SDS011;4992;51.628;6.664;2023-12-22T02:41:51;8.63;;;1.70;;
9906;SDS011;4992;51.628;6.664;2023-12-22T02:44:16;9.63;;;1.80;;
9906;SDS011;4992;51.628;6.664;2023-12-22T02:46:42;8.73;;;1.53;;
9906;SDS011;4992;51.628;6.664;2023-12-22T02:49:08;7.67;;;1.70;;
9906;SDS011;4992;51.628;6.664;2023-12-22T02:51:34;9.53;;;1.70;;
9906;SDS011;4992;51.628;6.664;2023-12-22T02:53:59;8.63;;;1.73;;
9906;SDS011;4992;51.628;6.664;2023-12-22T02:56:25;6.03;;;1.20;;
9906;SDS011;4992;51.628;6.664;2023-12-22T02:58:50;7.93;;;1.60;;
9906;SDS011;4992;51.628;6.664;2023-12-22T03:01:16;7.47;;;1.33;;
9906;SDS011;4992;51.628;6.664;2023-12-22T03:03:41;7.70;;;1.60;;
9906;SDS011;4992;51.628;6.664;2023-12-22T03:06:07;8.03;;;1.37;;
9906;SDS011;4992;51.628;6.664;2023-12-22T03:08:32;7.63;;;1.90;;
9906;SDS011;4992;51.628;6.664;2023-12-22T03:10:58;13.83;;;2.00;;
9906;SDS011;4992;51.628;6.664;2023-12-22T03:13:23;8.20;;;1.57;;
9906;SDS011;4992;51.628;6.664;2023-12-22T03:15:49;5.23;;;1.30;;
9906;SDS011;4992;51.628;6.664;2023-12-22T03:18:14;7.83;;;1.73;;
9906;SDS011;4992;51.628;6.664;2023-12-22T03:20:40;10.27;;;1.73;;
9906;SDS011;4992;51.628;6.664;2023-12-22T03:23:05;5.87;;;1.50;;
9906;SDS011;4992;51.628;6.664;2023-12-22T03:25:31;11.90;;;2.63;;
9906;SDS011;4992;51.628;6.664;2023-12-22T03:27:56;10.70;;;1.73;;
9906;SDS011;4992;51.628;6.664;2023-12-22T03:30:22;6.67;;;1.93;;
9906;SDS011;4992;51.628;6.664;2023-12-22T03:32:47;7.20;;;1.73;;
9906;SDS011;4992;51.628;6.664;2023-12-22T03:35:13;12.00;;;2.13;;
9906;SDS011;4992;51.628;6.664;2023-12-22T03:37:39;6.20;;;2.10;;
9906;SDS011;4992;51.628;6.664;2023-12-22T03:40:04;9.60;;;1.80;;
9906;SDS011;4992;51.628;6.664;2023-12-22T03:42:30;11.50;;;2.20;;
9906;SDS011;4992;51.628;6.664;2023-12-22T03:44:56;8.57;;;1.60;;
9906;SDS011;4992;51.628;6.664;2023-12-22T03:47:21;7.60;;;2.00;;
9906;SDS011;4992;51.628;6.664;2023-12-22T03:49:47;13.80;;;2.60;;
9906;SDS011;4992;51.628;6.664;2023-12-22T03:52:12;13.30;;;2.10;;
9906;SDS011;4992;51.628;6.664;2023-12-22T03:54:39;9.37;;;1.83;;
9906;SDS011;4992;51.628;6.664;2023-12-22T03:57:04;10.10;;;1.93;;
9906;SDS011;4992;51.628;6.664;2023-12-22T03:59:30;13.73;;;2.40;;
9906;SDS011;4992;51.628;6.664;2023-12-22T04:04:23;11.33;;;1.93;;
9906;SDS011;4992;51.628;6.664;2023-12-22T04:06:52;13.33;;;2.20;;
9906;SDS011;4992;51.628;6.664;2023-12-22T04:09:18;9.20;;;1.97;;
9906;SDS011;4992;51.628;6.664;2023-12-22T04:11:43;10.77;;;2.33;;
9906;SDS011;4992;51.628;6.664;2023-12-22T04:14:09;13.33;;;2.50;;
9906;SDS011;4992;51.628;6.664;2023-12-22T04:16:36;11.13;;;1.97;;
9906;SDS011;4992;51.628;6.664;2023-12-22T04:19:03;13.53;;;2.50;;
9906;SDS011;4992;51.628;6.664;2023-12-22T04:21:28;3.20;;;0.80;;
9906;SDS011;4992;51.628;6.664;2023-12-22T04:23:54;2.30;;;0.73;;
9906;SDS011;4992;51.628;6.664;2023-12-22T04:26:19;4.73;;;0.77;;
9906;SDS011;4992;51.628;6.664;2023-12-22T04:28:45;2.03;;;0.80;;
9906;SDS011;4992;51.628;6.664;2023-12-22T04:31:10;2.87;;;0.70;;
9906;SDS011;4992;51.628;6.664;2023-12-22T04:33:36;2.67;;;1.30;;
9906;SDS011;4992;51.628;6.664;2023-12-22T04:36:01;1.90;;;0.60;;
9906;SDS011;4992;51.628;6.664;2023-12-22T04:38:27;6.00;;;0.87;;
9906;SDS011;4992;51.628;6.664;2023-12-22T04:40:53;5.47;;;1.03;;
9906;SDS011;4992;51.628;6.664;2023-12-22T04:43:18;3.83;;;0.93;;
9906;SDS011;4992;51.628;6.664;2023-12-22T04:45:44;6.20;;;0.77;;
9906;SDS011;4992;51.628;6.664;2023-12-22T04:48:09;3.87;;;0.93;;
9906;SDS011;4992;51.628;6.664;2023-12-22T04:50:35;5.10;;;0.70;;
9906;SDS011;4992;51.628;6.664;2023-12-22T04:53:00;3.13;;;0.90;;
9906;SDS011;4992;51.628;6.664;2023-12-22T04:55:26;4.63;;;0.97;;
9906;SDS011;4992;51.628;6.664;2023-12-22T04:57:52;3.40;;;0.90;;
9906;SDS011;4992;51.628;6.664;2023-12-22T05:00:17;7.07;;;1.03;;
9906;SDS011;4992;51.628;6.664;2023-12-22T05:02:43;4.57;;;0.90;;
9906;SDS011;4992;51.628;6.664;2023-12-22T05:05:09;4.53;;;1.10;;
9906;SDS011;4992;51.628;6.664;2023-12-22T05:07:36;8.30;;;1.70;;
9906;SDS011;4992;51.628;6.664;2023-12-22T05:10:02;5.03;;;1.07;;
9906;SDS011;4992;51.628;6.664;2023-12-22T05:12:28;5.13;;;1.20;;
9906;SDS011;4992;51.628;6.664;2023-12-22T05:14:53;5.23;;;0.87;;
9906;SDS011;4992;51.628;6.664;2023-12-22T05:17:19;10.13;;;1.33;;
9906;SDS011;4992;51.628;6.664;2023-12-22T05:19:45;8.87;;;1.67;;
9906;SDS011;4992;51.628;6.664;2023-12-22T05:22:10;6.40;;;1.43;;
9906;SDS011;4992;51.628;6.664;2023-12-22T05:24:36;5.03;;;1.37;;
9906;SDS011;4992;51.628;6.664;2023-12-22T05:27:03;6.43;;;1.30;;
9906;SDS011;4992;51.628;6.664;2023-12-22T05:29:29;7.00;;;1.17;;
9906;SDS011;4992;51.628;6.664;2023-12-22T05:31:54;6.50;;;1.23;;
9906;SDS011;4992;51.628;6.664;2023-12-22T05:34:20;6.10;;;1.43;;
9906;SDS011;4992;51.628;6.664;2023-12-22T05:36:45;7.77;;;1.80;;
9906;SDS011;4992;51.628;6.664;2023-12-22T05:39:11;9.93;;;1.60;;
9906;SDS011;4992;51.628;6.664;2023-12-22T05:41:36;8.17;;;1.53;;
9906;SDS011;4992;51.628;6.664;2023-12-22T05:44:03;7.60;;;1.23;;
9906;SDS011;4992;51.628;6.664;2023-12-22T05:46:30;8.23;;;1.77;;
9906;SDS011;4992;51.628;6.664;2023-12-22T05:48:55;6.40;;;1.10;;
9906;SDS011;4992;51.628;6.664;2023-12-22T05:51:24;6.80;;;0.90;;
9906;SDS011;4992;51.628;6.664;2023-12-22T05:53:51;6.13;;;1.83;;
9906;SDS011;4992;51.628;6.664;2023-12-22T05:56:19;38.77;;;18.87;;
9906;SDS011;4992;51.628;6.664;2023-12-22T05:58:45;7.30;;;3.37;;
9906;SDS011;4992;51.628;6.664;2023-12-22T06:01:14;5.83;;;1.40;;
9906;SDS011;4992;51.628;6.664;2023-12-22T06:03:44;6.93;;;1.63;;
9906;SDS011;4992;51.628;6.664;2023-12-22T06:06:10;8.33;;;1.57;;
9906;SDS011;4992;51.628;6.664;2023-12-22T06:08:37;6.47;;;1.50;;
9906;SDS011;4992;51.628;6.664;2023-12-22T06:11:03;11.07;;;2.17;;
9906;SDS011;4992;51.628;6.664;2023-12-22T06:13:29;8.40;;;1.60;;
9906;SDS011;4992;51.628;6.664;2023-12-22T06:15:55;4.93;;;1.33;;
9906;SDS011;4992;51.628;6.664;2023-12-22T06:18:21;11.07;;;2.27;;
9906;SDS011;4992;51.628;6.664;2023-12-22T06:20:47;10.70;;;1.70;;
9906;SDS011;4992;51.628;6.664;2023-12-22T06:23:12;5.90;;;1.53;;
9906;SDS011;4992;51.628;6.664;2023-12-22T06:25:38;12.57;;;2.50;;
9906;SDS011;4992;51.628;6.664;2023-12-22T06:28:03;13.20;;;2.07;;
9906;SDS011;4992;51.628;6.664;2023-12-22T06:30:29;10.20;;;1.70;;
9906;SDS011;4992;51.628;6.664;2023-12-22T06:32:55;12.55;;;2.67;;
9906;SDS011;4992;51.628;6.664;2023-12-22T06:35:21;10.43;;;2.13;;
9906;SDS011;4992;51.628;6.664;2023-12-22T06:37:49;10.13;;;1.87;;
9906;SDS011;4992;51.628;6.664;2023-12-22T06:40:14;8.73;;;2.40;;
9906;SDS011;4992;51.628;6.664;2023-12-22T06:42:40;18.20;;;2.77;;
9906;SDS011;4992;51.628;6.664;2023-12-22T06:45:06;18.43;;;7.47;;
9906;SDS011;4992;51.628;6.664;2023-12-22T06:47:32;10.40;;;2.83;;
9906;SDS011;4992;51.628;6.664;2023-12-22T06:49:58;17.60;;;2.77;;
9906;SDS011;4992;51.628;6.664;2023-12-22T06:52:23;19.70;;;3.10;;
9906;SDS011;4992;51.628;6.664;2023-12-22T06:54:49;21.33;;;4.10;;
9906;SDS011;4992;51.628;6.664;2023-12-22T06:57:14;17.90;;;4.40;;
9906;SDS011;4992;51.628;6.664;2023-12-22T06:59:41;13.43;;;2.97;;
9906;SDS011;4992;51.628;6.664;2023-12-22T07:02:07;12.37;;;2.90;;
9906;SDS011;4992;51.628;6.664;2023-12-22T07:04:32;17.40;;;2.77;;
9906;SDS011;4992;51.628;6.664;2023-12-22T07:06:58;13.63;;;3.33;;
9906;SDS011;4992;51.628;6.664;2023-12-22T07:11:49;13.47;;;3.07;;
9906;SDS011;4992;51.628;6.664;2023-12-22T07:14:17;10.73;;;2.60;;
9906;SDS011;4992;51.628;6.664;2023-12-22T07:16:44;12.13;;;3.70;;
9906;SDS011;4992;51.628;6.664;2023-12-22T07:19:10;11.90;;;2.57;;
9906;SDS011;4992;51.628;6.664;2023-12-22T07:21:38;17.07;;;2.93;;
9906;SDS011;4992;51.628;6.664;2023-12-22T07:24:04;13.00;;;2.53;;
9906;SDS011;4992;51.628;6.664;2023-12-22T07:26:30;9.57;;;2.00;;
9906;SDS011;4992;51.628;6.664;2023-12-22T07:28:55;8.90;;;1.90;;
9906;SDS011;4992;51.628;6.664;2023-12-22T07:31:21;10.80;;;2.63;;
9906;SDS011;4992;51.628;6.664;2023-12-22T07:33:47;14.13;;;2.43;;
9906;SDS011;4992;51.628;6.664;2023-12-22T07:36:13;10.93;;;2.17;;
9906;SDS011;4992;51.628;6.664;2023-12-22T07:38:38;12.60;;;2.30;;
9906;SDS011;4992;51.628;6.664;2023-12-22T07:41:04;10.03;;;2.10;;
9906;SDS011;4992;51.628;6.664;2023-12-22T07:43:30;10.80;;;2.47;;
9906;SDS011;4992;51.628;6.664;2023-12-22T07:45:55;9.17;;;2.30;;
9906;SDS011;4992;51.628;6.664;2023-12-22T07:48:21;17.87;;;2.40;;
9906;SDS011;4992;51.628;6.664;2023-12-22T07:50:47;10.93;;;2.93;;
9906;SDS011;4992;51.628;6.664;2023-12-22T07:53:12;9.03;;;1.93;;
9906;SDS011;4992;51.628;6.664;2023-12-22T07:55:38;13.43;;;2.77;;
9906;SDS011;4992;51.628;6.664;2023-12-22T07:58:04;11.60;;;2.70;;
9906;SDS011;4992;51.628;6.664;2023-12-22T08:00:30;14.60;;;2.77;;
9906;SDS011;4992;51.628;6.664;2023-12-22T08:02:56;13.77;;;2.73;;
9906;SDS011;4992;51.628;6.664;2023-12-22T08:05:21;12.80;;;3.07;;
9906;SDS011;4992;51.628;6.664;2023-12-22T08:07:47;16.17;;;3.43;;
9906;SDS011;4992;51.628;6.664;2023-12-22T08:10:12;22.73;;;4.43;;
9906;SDS011;4992;51.628;6.664;2023-12-22T08:12:38;23.37;;;10.23;;
9906;SDS011;4992;51.628;6.664;2023-12-22T08:15:03;21.47;;;4.27;;
9906;SDS011;4992;51.628;6.664;2023-12-22T08:17:30;17.17;;;3.97;;
9906;SDS011;4992;51.628;6.664;2023-12-22T08:19:56;17.20;;;3.70;;
9906;SDS011;4992;51.628;6.664;2023-12-22T08:22:21;25.67;;;4.70;;
9906;SDS011;4992;51.628;6.664;2023-12-22T08:24:48;24.37;;;5.57;;
9906;SDS011;4992;51.628;6.664;2023-12-22T08:27:13;25.90;;;5.17;;
9906;SDS011;4992;51.628;6.664;2023-12-22T08:29:39;21.33;;;4.67;;
9906;SDS011;4992;51.628;6.664;2023-12-22T08:32:05;21.37;;;5.10;;
9906;SDS011;4992;51.628;6.664;2023-12-22T08:34:30;33.87;;;6.50;;
9906;SDS011;4992;51.628;6.664;2023-12-22T08:36:56;25.20;;;4.83;;
9906;SDS011;4992;51.628;6.664;2023-12-22T08:39:21;23.40;;;4.60;;
9906;SDS011;4992;51.628;6.664;2023-12-22T08:41:49;26.40;;;5.50;;
9906;SDS011;4992;51.628;6.664;2023-12-22T08:44:14;27.07;;;5.23;;
9906;SDS011;4992;51.628;6.664;2023-12-22T08:46:40;28.27;;;6.00;;
9906;SDS011;4992;51.628;6.664;2023-12-22T08:49:06;26.00;;;4.83;;
9906;SDS011;4992;51.628;6.664;2023-12-22T08:51:32;30.77;;;5.27;;
9906;SDS011;4992;51.628;6.664;2023-12-22T08:53:59;24.40;;;4.77;;
9906;SDS011;4992;51.628;6.664;2023-12-22T08:56:24;11.57;;;2.83;;
9906;SDS011;4992;51.628;6.664;2023-12-22T08:58:51;6.97;;;2.00;;
9906;SDS011;4992;51.628;6.664;2023-12-22T09:01:18;7.17;;;1.63;;
9906;SDS011;4992;51.628;6.664;2023-12-22T09:03:44;8.07;;;1.53;;
9906;SDS011;4992;51.628;6.664;2023-12-22T09:06:16;5.80;;;1.10;;
9906;SDS011;4992;51.628;6.664;2023-12-22T09:08:42;7.97;;;1.80;;
9906;SDS011;4992;51.628;6.664;2023-12-22T09:11:10;6.33;;;1.10;;
9906;SDS011;4992;51.628;6.664;2023-12-22T09:13:36;4.57;;;1.53;;
9906;SDS011;4992;51.628;6.664;2023-12-22T09:16:02;5.70;;;1.27;;
9906;SDS011;4992;51.628;6.664;2023-12-22T09:18:28;5.20;;;1.30;;
9906;SDS011;4992;51.628;6.664;2023-12-22T09:20:54;7.07;;;1.30;;
9906;SDS011;4992;51.628;6.664;2023-12-22T09:23:19;12.67;;;1.50;;
9906;SDS011;4992;51.628;6.664;2023-12-22T09:25:46;7.97;;;1.63;;
9906;SDS011;4992;51.628;6.664;2023-12-22T09:28:11;5.60;;;1.33;;
9906;SDS011;4992;51.628;6.664;2023-12-22T09:30:37;10.60;;;1.37;;
9906;SDS011;4992;51.628;6.664;2023-12-22T09:33:02;9.07;;;1.93;;
9906;SDS011;4992;51.628;6.664;2023-12-22T09:35:29;8.60;;;1.87;;
9906;SDS011;4992;51.628;6.664;2023-12-22T09:37:54;6.43;;;1.90;;
9906;SDS011;4992;51.628;6.664;2023-12-22T09:40:20;9.13;;;1.97;;
9906;SDS011;4992;51.628;6.664;2023-12-22T09:42:47;10.53;;;2.37;;
9906;SDS011;4992;51.628;6.664;2023-12-22T09:45:13;12.50;;;2.37;;
9906;SDS011;4992;51.628;6.664;2023-12-22T09:47:45;13.20;;;3.00;;
9906;SDS011;4992;51.628;6.664;2023-12-22T09:50:11;14.53;;;3.20;;
9906;SDS011;4992;51.628;6.664;2023-12-22T09:52:38;18.37;;;3.47;;
9906;SDS011;4992;51.628;6.664;2023-12-22T09:55:07;15.73;;;3.17;;
9906;SDS011;4992;51.628;6.664;2023-12-22T09:57:33;22.70;;;3.53;;
9906;SDS011;4992;51.628;6.664;2023-12-22T09:59:59;18.33;;;3.47;;
9906;SDS011;4992;51.628;6.664;2023-12-22T10:02:31;19.90;;;3.73;;
9906;SDS011;4992;51.628;6.664;2023-12-22T10:04:58;21.27;;;3.83;;
9906;SDS011;4992;51.628;6.664;2023-12-22T10:07:24;13.13;;;3.40;;
9906;SDS011;4992;51.628;6.664;2023-12-22T10:09:50;14.70;;;2.60;;
9906;SDS011;4992;51.628;6.664;2023-12-22T10:12:18;12.07;;;2.90;;
9906;SDS011;4992;51.628;6.664;2023-12-22T10:14:45;13.57;;;3.17;;
9906;SDS011;4992;51.628;6.664;2023-12-22T10:17:12;12.60;;;2.87;;
9906;SDS011;4992;51.628;6.664;2023-12-22T10:19:38;10.47;;;2.47;;
9906;SDS011;4992;51.628;6.664;2023-12-22T10:22:04;11.23;;;2.50;;
9906;SDS011;4992;51.628;6.664;2023-12-22T10:24:45;13.97;;;2.47;;
9906;SDS011;4992;51.628;6.664;2023-12-22T10:27:20;13.70;;;3.27;;
9906;SDS011;4992;51.628;6.664;2023-12-22T10:29:49;14.07;;;3.00;;
9906;SDS011;4992;51.628;6.664;2023-12-22T10:32:15;10.23;;;2.63;;
9906;SDS011;4992;51.628;6.664;2023-12-22T10:34:41;7.57;;;1.70;;
9906;SDS011;4992;51.628;6.664;2023-12-22T10:37:07;4.83;;;1.30;;
9906;SDS011;4992;51.628;6.664;2023-12-22T10:39:35;4.77;;;1.13;;
9906;SDS011;4992;51.628;6.664;2023-12-22T10:42:01;3.20;;;0.70;;
9906;SDS011;4992;51.628;6.664;2023-12-22T10:44:28;4.00;;;0.90;;
9906;SDS011;4992;51.628;6.664;2023-12-22T10:46:54;6.90;;;0.90;;
9906;SDS011;4992;51.628;6.664;2023-12-22T10:49:20;2.10;;;0.57;;
9906;SDS011;4992;51.628;6.664;2023-12-22T10:51:46;3.27;;;0.60;;
9906;SDS011;4992;51.628;6.664;2023-12-22T10:54:12;5.00;;;0.90;;
9906;SDS011;4992;51.628;6.664;2023-12-22T10:56:38;2.03;;;0.63;;
9906;SDS011;4992;51.628;6.664;2023-12-22T10:59:04;2.00;;;0.73;;
9906;SDS011;4992;51.628;6.664;2023-12-22T11:01:31;1.93;;;0.70;;
9906;SDS011;4992;51.628;6.664;2023-12-22T11:04:03;1.33;;;0.40;;
9906;SDS011;4992;51.628;6.664;2023-12-22T11:06:31;2.63;;;0.70;;
9906;SDS011;4992;51.628;6.664;2023-12-22T11:09:03;1.40;;;0.60;;
9906;SDS011;4992;51.628;6.664;2023-12-22T11:11:36;4.73;;;1.10;;
9906;SDS011;4992;51.628;6.664;2023-12-22T11:14:02;3.70;;;0.90;;
9906;SDS011;4992;51.628;6.664;2023-12-22T11:16:29;2.93;;;0.60;;
9906;SDS011;4992;51.628;6.664;2023-12-22T11:18:55;1.93;;;0.50;;
9906;SDS011;4992;51.628;6.664;2023-12-22T11:21:24;2.67;;;0.80;;
9906;SDS011;4992;51.628;6.664;2023-12-22T11:23:50;4.67;;;0.90;;
9906;SDS011;4992;51.628;6.664;2023-12-22T11:26:17;3.70;;;1.37;;
9906;SDS011;4992;51.628;6.664;2023-12-22T11:28:45;3.10;;;1.27;;
9906;SDS011;4992;51.628;6.664;2023-12-22T11:31:12;2.83;;;1.30;;
9906;SDS011;4992;51.628;6.664;2023-12-22T11:33:39;5.90;;;1.33;;
9906;SDS011;4992;51.628;6.664;2023-12-22T11:36:11;3.53;;;1.17;;
9906;SDS011;4992;51.628;6.664;2023-12-22T11:38:38;4.07;;;0.93;;
9906;SDS011;4992;51.628;6.664;2023-12-22T11:41:05;2.70;;;1.10;;
9906;SDS011;4992;51.628;6.664;2023-12-22T11:43:36;5.43;;;1.57;;
9906;SDS011;4992;51.628;6.664;2023-12-22T11:46:03;9.30;;;2.17;;
9906;SDS011;4992;51.628;6.664;2023-12-22T11:48:29;7.63;;;1.87;;
9906;SDS011;4992;51.628;6.664;2023-12-22T11:50:55;9.67;;;2.10;;
9906;SDS011;4992;51.628;6.664;2023-12-22T11:53:21;5.37;;;1.93;;
9906;SDS011;4992;51.628;6.664;2023-12-22T11:55:55;8.95;;;2.53;;
9906;SDS011;4992;51.628;6.664;2023-12-22T12:00:59;6.80;;;2.17;;
9906;SDS011;4992;51.628;6.664;2023-12-22T12:03:26;6.03;;;2.60;;
9906;SDS011;4992;51.628;6.664;2023-12-22T12:06:11;13.20;;;5.13;;
9906;SDS011;4992;51.628;6.664;2023-12-22T12:08:47;6.53;;;1.90;;
9906;SDS011;4992;51.628;6.664;2023-12-22T12:11:16;6.10;;;1.83;;
9906;SDS011;4992;51.628;6.664;2023-12-22T12:13:43;4.40;;;1.67;;
9906;SDS011;4992;51.628;6.664;2023-12-22T12:16:10;5.72;;;1.30;;
9906;SDS011;4992;51.628;6.664;2023-12-22T12:18:37;7.28;;;1.50;;
9906;SDS011;4992;51.628;6.664;2023-12-22T12:21:05;5.60;;;1.20;;
9906;SDS011;4992;51.628;6.664;2023-12-22T12:23:34;6.15;;;1.25;;
9906;SDS011;4992;51.628;6.664;2023-12-22T12:26:00;4.07;;;1.42;;
9906;SDS011;4992;51.628;6.664;2023-12-22T12:28:29;3.30;;;1.15;;
9906;SDS011;4992;51.628;6.664;2023-12-22T12:30:56;2.72;;;0.70;;
9906;SDS011;4992;51.628;6.664;2023-12-22T12:33:27;4.72;;;0.98;;
9906;SDS011;4992;51.628;6.664;2023-12-22T12:35:57;4.85;;;0.85;;
9906;SDS011;4992;51.628;6.664;2023-12-22T12:38:28;3.45;;;1.10;;
9906;SDS011;4992;51.628;6.664;2023-12-22T12:41:18;4.03;;;0.70;;
9906;SDS011;4992;51.628;6.664;2023-12-22T12:43:57;4.40;;;0.80;;
9906;SDS011;4992;51.628;6.664;2023-12-22T12:46:23;3.03;;;1.05;;
9906;SDS011;4992;51.628;6.664;2023-12-22T12:49:07;4.57;;;2.05;;
9906;SDS011;4992;51.628;6.664;2023-12-22T12:51:37;3.97;;;1.80;;
9906;SDS011;4992;51.628;6.664;2023-12-22T12:54:03;4.00;;;1.80;;
9906;SDS011;4992;51.628;6.664;2023-12-22T12:56:35;3.10;;;1.25;;
9906;SDS011;4992;51.628;6.664;2023-12-22T12:59:16;4.50;;;1.70;;
9906;SDS011;4992;51.628;6.664;2023-12-22T13:01:46;8.60;;;1.52;;
9906;SDS011;4992;51.628;6.664;2023-12-22T13:04:13;7.53;;;1.30;;
9906;SDS011;4992;51.628;6.664;2023-12-22T13:06:42;7.05;;;0.93;;
9906;SDS011;4992;51.628;6.664;2023-12-22T13:09:12;4.10;;;1.10;;
9906;SDS011;4992;51.628;6.664;2023-12-22T13:11:40;6.10;;;1.05;;
9906;SDS011;4992;51.628;6.664;2023-12-22T13:14:08;4.68;;;0.93;;
9906;SDS011;4992;51.628;6.664;2023-12-22T13:16:34;6.55;;;1.50;;
9906;SDS011;4992;51.628;6.664;2023-12-22T13:19:01;5.05;;;0.82;;
9906;SDS011;4992;51.628;6.664;2023-12-22T13:21:27;3.58;;;1.35;;
9906;SDS011;4992;51.628;6.664;2023-12-22T13:24:13;5.40;;;1.20;;
9906;SDS011;4992;51.628;6.664;2023-12-22T13:26:44;4.80;;;1.33;;
9906;SDS011;4992;51.628;6.664;2023-12-22T13:29:10;4.30;;;1.00;;
9906;SDS011;4992;51.628;6.664;2023-12-22T13:31:37;3.88;;;1.08;;
9906;SDS011;4992;51.628;6.664;2023-12-22T13:34:08;2.15;;;0.90;;
9906;SDS011;4992;51.628;6.664;2023-12-22T13:36:34;4.57;;;1.13;;
9906;SDS011;4992;51.628;6.664;2023-12-22T13:39:01;6.57;;;1.10;;
9906;SDS011;4992;51.628;6.664;2023-12-22T13:41:31;7.20;;;1.30;;
9906;SDS011;4992;51.628;6.664;2023-12-22T13:44:01;4.72;;;1.23;;
9906;SDS011;4992;51.628;6.664;2023-12-22T13:46:28;6.88;;;1.08;;
9906;SDS011;4992;51.628;6.664;2023-12-22T13:48:54;5.25;;;1.30;;
9906;SDS011;4992;51.628;6.664;2023-12-22T13:51:20;4.07;;;0.98;;
9906;SDS011;4992;51.628;6.664;2023-12-22T13:53:48;6.22;;;1.40;;
9906;SDS011;4992;51.628;6.664;2023-12-22T13:56:15;7.25;;;1.98;;
9906;SDS011;4992;51.628;6.664;2023-12-22T13:58:47;4.70;;;0.98;;
9906;SDS011;4992;51.628;6.664;2023-12-22T14:01:16;4.60;;;1.20;;
9906;SDS011;4992;51.628;6.664;2023-12-22T14:03:42;6.22;;;1.60;;
9906;SDS011;4992;51.628;6.664;2023-12-22T14:06:08;5.00;;;1.73;;
9906;SDS011;4992;51.628;6.664;2023-12-22T14:08:40;4.00;;;0.85;;
9906;SDS011;4992;51.628;6.664;2023-12-22T14:11:08;7.25;;;1.67;;
9906;SDS011;4992;51.628;6.664;2023-12-22T14:13:34;4.25;;;1.40;;
9906;SDS011;4992;51.628;6.664;2023-12-22T14:16:04;5.05;;;0.95;;
9906;SDS011;4992;51.628;6.664;2023-12-22T14:18:31;7.88;;;2.42;;
9906;SDS011;4992;51.628;6.664;2023-12-22T14:20:56;8.73;;;2.15;;
9906;SDS011;4992;51.628;6.664;2023-12-22T14:23:23;6.00;;;1.33;;
9906;SDS011;4992;51.628;6.664;2023-12-22T14:25:49;5.10;;;1.33;;
9906;SDS011;4992;51.628;6.664;2023-12-22T14:28:14;4.95;;;1.23;;
9906;SDS011;4992;51.628;6.664;2023-12-22T14:30:40;4.68;;;1.50;;
9906;SDS011;4992;51.628;6.664;2023-12-22T14:33:05;3.67;;;0.90;;
9906;SDS011;4992;51.628;6.664;2023-12-22T14:35:31;3.30;;;0.93;;
9906;SDS011;4992;51.628;6.664;2023-12-22T14:37:56;5.47;;;1.30;;
9906;SDS011;4992;51.628;6.664;2023-12-22T14:40:22;5.63;;;1.15;;
9906;SDS011;4992;51.628;6.664;2023-12-22T14:42:48;4.75;;;0.98;;
9906;SDS011;4992;51.628;6.664;2023-12-22T14:45:14;6.43;;;1.30;;
9906;SDS011;4992;51.628;6.664;2023-12-22T14:47:39;4.45;;;0.77;;
9906;SDS011;4992;51.628;6.664;2023-12-22T14:50:05;5.75;;;1.08;;
9906;SDS011;4992;51.628;6.664;2023-12-22T14:52:31;3.50;;;1.00;;
9906;SDS011;4992;51.628;6.664;2023-12-22T14:55:00;6.53;;;0.90;;
9906;SDS011;4992;51.628;6.664;2023-12-22T14:57:26;6.05;;;1.42;;
9906;SDS011;4992;51.628;6.664;2023-12-22T14:59:54;6.95;;;1.63;;
9906;SDS011;4992;51.628;6.664;2023-12-22T15:02:19;8.90;;;1.85;;
9906;SDS011;4992;51.628;6.664;2023-12-22T15:04:45;4.97;;;1.35;;
9906;SDS011;4992;51.628;6.664;2023-12-22T15:07:14;5.53;;;1.23;;
9906;SDS011;4992;51.628;6.664;2023-12-22T15:09:41;5.32;;;1.20;;
9906;SDS011;4992;51.628;6.664;2023-12-22T15:12:06;8.05;;;1.35;;
9906;SDS011;4992;51.628;6.664;2023-12-22T15:14:32;4.00;;;1.27;;
9906;SDS011;4992;51.628;6.664;2023-12-22T15:16:57;8.98;;;1.58;;
9906;SDS011;4992;51.628;6.664;2023-12-22T15:19:23;6.30;;;1.00;;